createdAt,value
2022-12-27T00:02:15.723Z,2.92
2022-12-27T00:05:38.836Z,2.85
2022-12-27T00:09:02.288Z,2.45
2022-12-27T00:12:24.308Z,3.05
2022-12-27T00:15:46.363Z,3.17
2022-12-27T00:19:08.367Z,3.30
2022-12-27T00:22:31.563Z,3.00
2022-12-27T00:25:53.701Z,3.38
2022-12-27T00:29:15.644Z,3.17
2022-12-27T00:32:37.458Z,2.80
2022-12-27T00:36:00.860Z,3.22
2022-12-27T00:39:24.169Z,2.70
2022-12-27T00:42:46.199Z,2.72
2022-12-27T00:46:09.174Z,2.42
2022-12-27T00:49:33.185Z,3.00
2022-12-27T00:53:00.946Z,2.25
2022-12-27T00:56:26.540Z,2.50
2022-12-27T00:59:49.229Z,2.90
2022-12-27T01:03:11.429Z,2.40
2022-12-27T01:06:35.535Z,2.63
2022-12-27T01:10:00.500Z,3.00
2022-12-27T01:13:23.676Z,1.75
2022-12-27T01:16:45.704Z,2.33
2022-12-27T01:20:08.888Z,1.50
2022-12-27T01:23:32.823Z,1.67
2022-12-27T01:26:54.880Z,2.20
2022-12-27T01:30:18.077Z,1.73
2022-12-27T01:33:40.386Z,1.88
2022-12-27T01:37:02.505Z,2.08
2022-12-27T01:40:24.372Z,2.03
2022-12-27T01:43:44.961Z,1.90
2022-12-27T01:47:17.463Z,1.98
2022-12-27T01:50:43.140Z,1.77
2022-12-27T01:54:04.977Z,1.80
2022-12-27T01:57:26.674Z,1.92
2022-12-27T02:00:50.029Z,1.60
2022-12-27T02:04:17.890Z,1.52
2022-12-27T02:07:49.111Z,1.70
2022-12-27T02:11:12.014Z,2.20
2022-12-27T02:14:36.121Z,2.00
2022-12-27T02:17:58.046Z,1.98
2022-12-27T02:22:01.356Z,2.42
2022-12-27T02:25:42.703Z,2.28
2022-12-27T02:29:38.768Z,1.98
2022-12-27T02:33:05.972Z,2.03
2022-12-27T02:36:34.938Z,2.15
2022-12-27T02:40:19.713Z,1.80
2022-12-27T02:44:01.763Z,2.28
2022-12-27T02:47:43.570Z,2.00
2022-12-27T02:51:40.572Z,2.50
2022-12-27T02:55:29.797Z,2.20
2022-12-27T02:59:01.238Z,2.95
2022-12-27T03:02:54.312Z,2.80
2022-12-27T03:06:43.746Z,1.77
2022-12-27T03:14:16.380Z,2.30
2022-12-27T03:17:45.247Z,2.20
2022-12-27T03:21:26.312Z,2.37
2022-12-27T03:25:06.609Z,2.40
2022-12-27T03:28:49.235Z,2.80
2022-12-27T03:32:31.151Z,2.55
2022-12-27T03:36:15.285Z,2.30
2022-12-27T03:39:41.620Z,2.65
2022-12-27T03:43:14.902Z,2.10
2022-12-27T03:46:39.090Z,2.47
2022-12-27T03:50:08.307Z,1.67
2022-12-27T03:53:37.194Z,2.50
2022-12-27T03:57:02.171Z,3.17
2022-12-27T04:00:24.911Z,2.40
2022-12-27T04:03:46.614Z,2.63
2022-12-27T04:07:09.094Z,2.55
2022-12-27T04:10:49.525Z,2.80
2022-12-27T04:14:29.144Z,2.83
2022-12-27T04:18:09.014Z,3.00
2022-12-27T04:21:48.194Z,2.50
2022-12-27T04:25:27.849Z,2.63
2022-12-27T04:29:08.720Z,2.88
2022-12-27T04:32:48.533Z,2.25
2022-12-27T04:36:11.108Z,2.80
2022-12-27T04:39:33.271Z,2.20
2022-12-27T04:43:13.207Z,2.03
2022-12-27T04:46:54.191Z,2.08
2022-12-27T04:50:43.297Z,1.90
2022-12-27T04:54:22.445Z,2.17
2022-12-27T04:57:44.589Z,2.28
2022-12-27T05:01:24.185Z,1.92
2022-12-27T05:04:49.548Z,2.67
2022-12-27T05:08:30.695Z,2.50
2022-12-27T05:12:14.831Z,2.55
2022-12-27T05:15:36.528Z,2.50
2022-12-27T05:18:59.031Z,2.88
2022-12-27T05:22:39.557Z,3.42
2022-12-27T05:26:02.310Z,3.40
2022-12-27T05:29:24.011Z,3.38
2022-12-27T05:32:45.844Z,2.20
2022-12-27T05:36:08.998Z,2.78
2022-12-27T05:39:32.309Z,3.17
2022-12-27T05:42:54.887Z,2.72
2022-12-27T05:46:19.005Z,2.38
2022-12-27T05:49:40.966Z,2.88
2022-12-27T05:53:02.965Z,2.33
2022-12-27T05:56:26.344Z,2.83
2022-12-27T05:59:48.353Z,4.15
2022-12-27T06:03:12.369Z,4.22
2022-12-27T06:06:35.494Z,2.75
2022-12-27T06:09:57.014Z,3.75
2022-12-27T06:13:20.337Z,5.55
2022-12-27T06:16:42.507Z,3.72
2022-12-27T06:20:04.487Z,3.45
2022-12-27T06:23:26.003Z,3.75
2022-12-27T06:26:48.025Z,2.70
2022-12-27T06:30:12.585Z,3.38
2022-12-27T06:33:34.316Z,5.45
2022-12-27T06:36:56.285Z,2.38
2022-12-27T06:40:18.391Z,3.67
2022-12-27T06:43:42.878Z,4.35
2022-12-27T06:47:06.500Z,3.65
2022-12-27T06:50:28.700Z,3.47
2022-12-27T06:53:51.446Z,2.13
2022-12-27T06:57:13.643Z,2.60
2022-12-27T07:00:35.581Z,2.65
2022-12-27T07:04:00.683Z,3.42
2022-12-27T07:07:22.975Z,3.15
2022-12-27T07:10:44.867Z,3.70
2022-12-27T07:14:10.056Z,11.43
2022-12-27T07:17:32.312Z,7.22
2022-12-27T07:20:55.616Z,7.38
2022-12-27T07:24:17.670Z,9.45
2022-12-27T07:27:39.548Z,15.85
2022-12-27T07:31:01.512Z,11.13
2022-12-27T07:34:23.602Z,6.22
2022-12-27T07:37:55.449Z,4.88
2022-12-27T07:41:19.128Z,6.70
2022-12-27T07:44:42.928Z,5.20
2022-12-27T07:48:05.040Z,5.90
2022-12-27T07:51:27.787Z,3.25
2022-12-27T07:54:51.227Z,3.55
2022-12-27T07:58:13.352Z,3.90
2022-12-27T08:02:03.928Z,3.97
2022-12-27T08:05:28.006Z,3.50
2022-12-27T08:08:51.219Z,3.33
2022-12-27T08:12:15.135Z,4.53
2022-12-27T08:15:41.043Z,6.22
2022-12-27T08:19:08.211Z,3.20
2022-12-27T08:22:32.832Z,4.47
2022-12-27T08:25:54.660Z,3.55
2022-12-27T08:29:18.133Z,4.35
2022-12-27T08:32:40.205Z,3.90
2022-12-27T08:36:28.570Z,2.90
2022-12-27T08:39:47.282Z,3.55
2022-12-27T08:43:09.580Z,4.25
2022-12-27T08:46:32.766Z,5.30
2022-12-27T08:49:54.912Z,4.53
2022-12-27T08:53:16.668Z,4.72
2022-12-27T08:56:38.394Z,9.35
2022-12-27T09:00:00.240Z,17.88
2022-12-27T09:03:23.712Z,27.73
2022-12-27T09:06:45.661Z,17.63
2022-12-27T09:10:08.474Z,12.02
2022-12-27T09:13:30.566Z,7.60
2022-12-27T09:16:52.318Z,15.60
2022-12-27T09:20:16.000Z,17.85
2022-12-27T09:23:38.755Z,14.68
2022-12-27T09:27:00.894Z,10.55
2022-12-27T09:30:22.876Z,15.27
2022-12-27T09:33:44.933Z,11.68
2022-12-27T09:37:09.066Z,10.60
2022-12-27T09:40:30.715Z,11.43
2022-12-27T09:43:59.847Z,9.50
2022-12-27T09:47:27.961Z,17.40
2022-12-27T09:50:54.085Z,31.15
2022-12-27T09:54:20.707Z,20.48
2022-12-27T09:57:44.886Z,13.75
2022-12-27T10:01:21.157Z,15.80
2022-12-27T10:05:18.385Z,18.70
2022-12-27T10:08:37.442Z,16.35
2022-12-27T10:12:05.837Z,11.63
2022-12-27T10:15:33.215Z,17.13
2022-12-27T10:19:12.714Z,10.13
2022-12-27T10:26:00.405Z,8.18
2022-12-27T10:29:25.882Z,5.85
2022-12-27T10:32:48.955Z,4.43
2022-12-27T10:36:15.741Z,4.45
2022-12-27T10:39:38.964Z,5.20
2022-12-27T10:43:04.600Z,8.07
2022-12-27T10:46:32.993Z,5.55
2022-12-27T10:50:11.303Z,6.32
2022-12-27T10:53:36.968Z,7.38
2022-12-27T10:57:18.613Z,5.88
2022-12-27T11:00:40.650Z,7.82
2022-12-27T11:04:21.528Z,7.80
2022-12-27T11:07:44.041Z,7.65
2022-12-27T11:11:18.921Z,6.00
2022-12-27T11:14:41.030Z,7.57
2022-12-27T11:18:05.938Z,8.02
2022-12-27T11:21:32.951Z,8.27
2022-12-27T11:25:00.451Z,11.43
2022-12-27T11:28:25.102Z,9.02
2022-12-27T11:31:49.326Z,8.10
2022-12-27T11:35:18.607Z,6.10
2022-12-27T11:42:09.208Z,3.92
2022-12-27T11:45:36.958Z,5.32
2022-12-27T11:49:00.209Z,4.75
2022-12-27T11:53:02.601Z,6.68
2022-12-27T11:56:28.571Z,10.90
2022-12-27T12:00:01.535Z,12.07
2022-12-27T12:03:55.357Z,14.27
2022-12-27T12:07:30.026Z,6.03
2022-12-27T12:11:05.346Z,4.13
2022-12-27T12:15:08.126Z,10.18
2022-12-27T12:18:43.476Z,6.75
2022-12-27T12:22:23.908Z,5.97
2022-12-27T12:26:10.072Z,3.97
2022-12-27T12:29:48.921Z,3.25
2022-12-27T12:33:45.477Z,4.03
2022-12-27T12:37:27.486Z,20.40
2022-12-27T12:41:21.712Z,21.85
2022-12-27T12:45:25.093Z,11.63
2022-12-27T12:49:17.250Z,7.85
2022-12-27T12:53:14.540Z,7.55
2022-12-27T12:56:50.425Z,12.10
2022-12-27T13:00:27.657Z,23.35
2022-12-27T13:04:37.040Z,23.83
2022-12-27T13:08:12.874Z,28.98
2022-12-27T13:11:45.696Z,21.55
2022-12-27T13:15:25.866Z,22.98
2022-12-27T13:18:59.604Z,37.42
2022-12-27T13:22:35.105Z,28.70
2022-12-27T13:26:11.248Z,27.40
2022-12-27T13:30:00.420Z,53.28
2022-12-27T13:33:37.100Z,65.18
2022-12-27T13:37:12.123Z,53.55
2022-12-27T13:40:58.482Z,29.40
2022-12-27T13:44:36.658Z,12.48
2022-12-27T13:48:21.744Z,10.52
2022-12-27T13:51:45.796Z,6.95
2022-12-27T13:55:27.815Z,9.43
2022-12-27T13:59:08.045Z,8.13
2022-12-27T14:03:05.195Z,7.45
2022-12-27T14:07:00.182Z,14.65
2022-12-27T14:10:33.817Z,12.27
2022-12-27T14:13:59.679Z,18.63
2022-12-27T14:17:32.362Z,18.02
2022-12-27T14:21:18.811Z,21.55
2022-12-27T14:25:26.208Z,36.33
2022-12-27T14:29:28.182Z,16.02
2022-12-27T14:33:31.928Z,15.73
2022-12-27T14:37:26.811Z,12.85
2022-12-27T14:41:06.658Z,15.95
2022-12-27T14:45:06.027Z,34.33
2022-12-27T14:52:41.952Z,23.08
2022-12-27T14:56:16.254Z,23.98
2022-12-27T14:59:49.005Z,34.58
2022-12-27T15:03:25.170Z,20.33
2022-12-27T15:07:24.351Z,19.63
2022-12-27T15:11:06.591Z,19.55
2022-12-27T15:14:57.083Z,20.98
2022-12-27T15:18:35.306Z,23.60
2022-12-27T15:22:10.133Z,25.03
2022-12-27T15:25:48.491Z,33.35
2022-12-27T15:29:29.523Z,15.50
2022-12-27T15:33:02.674Z,19.65
2022-12-27T15:36:40.494Z,12.43
2022-12-27T15:40:02.772Z,20.63
2022-12-27T15:43:41.353Z,9.95
2022-12-27T15:47:44.172Z,8.60
2022-12-27T15:51:16.594Z,7.35
2022-12-27T15:55:08.763Z,19.48
2022-12-27T15:58:32.542Z,33.38
2022-12-27T16:02:26.881Z,24.38
2022-12-27T16:05:52.523Z,42.83
2022-12-27T16:09:23.085Z,23.77
2022-12-27T16:12:50.591Z,22.90
2022-12-27T16:16:55.153Z,19.73
2022-12-27T16:20:20.103Z,14.00
2022-12-27T16:23:52.335Z,13.65
2022-12-27T16:27:25.177Z,11.85
2022-12-27T16:30:49.716Z,10.60
2022-12-27T16:34:13.777Z,8.85
2022-12-27T16:37:45.213Z,12.57
2022-12-27T16:41:16.615Z,7.03
2022-12-27T16:44:53.941Z,4.00
2022-12-27T16:48:26.167Z,9.57
2022-12-27T16:52:03.606Z,10.57
2022-12-27T16:55:58.200Z,5.55
2022-12-27T16:59:57.839Z,6.32
2022-12-27T17:03:44.741Z,5.88
2022-12-27T17:07:06.751Z,5.30
2022-12-27T17:10:56.335Z,4.18
2022-12-27T17:14:22.469Z,5.53
2022-12-27T17:17:47.343Z,7.65
2022-12-27T17:21:18.056Z,10.38
2022-12-27T17:24:40.280Z,4.78
2022-12-27T17:28:12.125Z,4.63
2022-12-27T17:31:44.553Z,4.53
2022-12-27T17:35:16.547Z,5.40
2022-12-27T17:38:49.886Z,4.40
2022-12-27T17:42:38.072Z,10.10
2022-12-27T17:46:21.368Z,8.75
2022-12-27T17:49:43.364Z,10.27
2022-12-27T17:53:35.594Z,8.10
2022-12-27T17:57:18.212Z,6.07
2022-12-27T18:00:51.667Z,7.38
2022-12-27T18:04:23.252Z,5.28
2022-12-27T18:07:45.846Z,7.05
2022-12-27T18:11:10.494Z,5.22
2022-12-27T18:14:35.066Z,5.65
2022-12-27T18:17:59.546Z,5.03
2022-12-27T18:21:28.765Z,5.32
2022-12-27T18:24:51.071Z,12.82
2022-12-27T18:28:18.187Z,5.50
2022-12-27T18:31:48.506Z,6.38
2022-12-27T18:35:24.117Z,8.50
2022-12-27T18:38:54.200Z,7.30
2022-12-27T18:42:18.724Z,5.90
2022-12-27T18:45:40.979Z,5.20
2022-12-27T18:49:03.789Z,3.83
2022-12-27T18:52:31.384Z,5.60
2022-12-27T18:56:03.149Z,2.90
2022-12-27T18:59:28.896Z,2.75
2022-12-27T19:02:52.104Z,10.38
2022-12-27T19:06:14.840Z,11.73
2022-12-27T19:09:39.325Z,16.00
2022-12-27T19:13:03.906Z,3.40
2022-12-27T19:16:31.329Z,13.32
2022-12-27T19:19:56.273Z,3.45
2022-12-27T19:23:29.592Z,5.03
2022-12-27T19:26:52.113Z,3.10
2022-12-27T19:30:51.449Z,3.20
2022-12-27T19:34:19.554Z,4.32
2022-12-27T19:37:41.420Z,4.38
2022-12-27T19:41:04.894Z,8.02
2022-12-27T19:44:26.765Z,9.75
2022-12-27T19:47:50.846Z,4.55
2022-12-27T19:51:18.315Z,5.38
2022-12-27T19:54:40.102Z,4.10
2022-12-27T19:58:01.846Z,11.35
2022-12-27T20:01:23.685Z,7.63
2022-12-27T20:04:45.555Z,7.40
2022-12-27T20:08:26.532Z,9.57
2022-12-27T20:11:50.469Z,3.67
2022-12-27T20:15:12.490Z,5.55
2022-12-27T20:18:34.501Z,3.47
2022-12-27T20:21:56.602Z,12.13
2022-12-27T20:25:19.811Z,7.53
2022-12-27T20:28:41.842Z,3.90
2022-12-27T20:32:04.030Z,4.97
2022-12-27T20:35:25.764Z,5.32
2022-12-27T20:38:47.696Z,6.40
2022-12-27T20:42:10.834Z,4.20
2022-12-27T20:45:33.054Z,3.50
2022-12-27T20:48:56.441Z,4.13
2022-12-27T20:52:18.297Z,3.72
2022-12-27T20:55:40.222Z,3.08
2022-12-27T20:59:03.381Z,2.33
2022-12-27T21:02:25.148Z,1.90
2022-12-27T21:05:47.449Z,1.75
2022-12-27T21:09:09.439Z,1.90
2022-12-27T21:12:32.453Z,2.42
2022-12-27T21:15:55.391Z,2.45
2022-12-27T21:19:17.361Z,2.67
2022-12-27T21:22:39.042Z,2.42
2022-12-27T21:30:57.728Z,2.55
2022-12-27T21:34:20.765Z,3.15
2022-12-27T21:37:42.736Z,5.32
2022-12-27T21:41:06.733Z,4.20
2022-12-27T21:44:30.028Z,3.25
2022-12-27T21:47:54.100Z,2.67
2022-12-27T21:51:17.220Z,2.67
2022-12-27T21:54:39.682Z,2.17
2022-12-27T21:58:01.755Z,1.20
2022-12-27T22:01:26.197Z,1.55
2022-12-27T22:04:49.436Z,1.50
2022-12-27T22:08:11.419Z,2.13
2022-12-27T22:11:35.036Z,1.08
2022-12-27T22:14:56.899Z,2.08
2022-12-27T22:18:18.952Z,1.70
2022-12-27T22:21:43.624Z,3.15
2022-12-27T22:25:05.842Z,1.80
2022-12-27T22:28:28.031Z,2.33
2022-12-27T22:31:49.851Z,1.48
2022-12-27T22:35:11.920Z,2.15
2022-12-27T22:38:36.955Z,2.53
2022-12-27T22:41:58.920Z,2.60
2022-12-27T22:45:21.978Z,1.65
2022-12-27T22:48:44.062Z,1.70
2022-12-27T22:52:06.132Z,1.77
2022-12-27T22:55:29.161Z,1.13
2022-12-27T22:58:51.701Z,3.45
2022-12-27T23:02:13.364Z,1.85
2022-12-27T23:05:35.090Z,1.40
2022-12-27T23:08:57.155Z,1.92
2022-12-27T23:12:21.428Z,1.40
2022-12-27T23:15:43.166Z,2.42
2022-12-27T23:19:05.306Z,1.90
2022-12-27T23:22:27.282Z,1.83
2022-12-27T23:25:49.200Z,2.40
2022-12-27T23:29:14.629Z,2.33
2022-12-27T23:32:36.631Z,1.70
2022-12-27T23:35:58.413Z,1.33
2022-12-27T23:39:20.062Z,1.45
2022-12-27T23:42:42.173Z,1.65
2022-12-27T23:46:07.978Z,1.55
2022-12-27T23:49:29.997Z,1.02
2022-12-27T23:52:52.291Z,1.88
2022-12-27T23:56:17.436Z,1.48
2022-12-27T23:59:39.441Z,1.80
